Date,TemperatureHighF,TemperatureAvgF,TemperatureLowF,DewpointHighF,DewpointAvgF,DewpointLowF,HumidityHigh,HumidityAvg,HumidityLow,PressureMaxIn,PressureMinIn,WindSpeedMaxMPH,WindSpeedAvgMPH,GustSpeedMaxMPH,PrecipitationSumIn
2013-2-1,45.0,37.8,31.0,37.0,24.2,-99.9,104,75,29,0.00,40.00,3,-43,4,0.01
2013-2-2,53.0,44.7,35.0,26.0,16.0,10.0,68,33,19,0.00,40.00,2,1,3,0.01
2013-2-3,35.0,32.7,31.0,33.0,31.9,30.0,103,98,81,0.00,40.00,2,1,4,0.01
2013-2-4,42.0,35.6,31.0,39.0,33.7,31.0,103,95,75,0.00,40.00,3,2,5,0.00
2013-2-5,36.0,33.0,31.0,35.0,26.4,-99.9,102,94,83,0.00,40.00,4,-42,6,0.02
2013-2-6,34.0,31.7,30.0,34.0,31.4,30.0,102,100,92,0.00,40.00,6,2,10,0.02
2013-2-7,34.0,29.1,26.0,31.0,28.2,26.0,101,97,89,0.00,40.00,5,2,10,0.01
2013-2-8,31.0,26.7,24.0,29.0,26.2,24.0,101,98,93,0.00,40.00,2,2,5,0.01
2013-2-9,34.0,29.7,27.0,33.0,29.0,26.0,101,98,93,0.00,40.00,3,2,6,0.00
2013-2-10,37.0,30.3,27.0,32.0,28.8,26.0,102,95,74,0.00,40.00,3,-42,4,0.00
2013-2-11,34.0,30.6,26.0,33.0,30.2,24.0,103,100,89,0.00,40.00,3,1,6,0.00
2013-2-12,34.0,33.3,32.0,34.0,33.3,32.0,103,103,100,0.00,40.00,3,2,5,0.01
2013-2-13,34.0,32.6,31.0,34.0,26.9,-99.9,104,99,100,0.00,40.00,3,-41,4,0.01
2013-2-14,39.0,33.7,30.0,39.0,33.7,30.0,103,102,100,0.00,40.00,3,-21,4,0.01
2013-2-15,53.0,43.2,36.0,42.0,37.8,35.0,102,83,53,0.00,40.00,3,-41,4,0.00
2013-2-16,38.0,33.4,29.0,35.0,32.8,29.0,103,99,88,0.00,40.00,2,1,4,0.02
2013-2-17,31.0,28.2,27.0,31.0,28.1,27.0,101,100,99,0.00,40.00,3,1,3,0.01
2013-2-18,31.0,27.6,25.0,30.0,27.2,24.0,101,99,97,0.00,40.00,2,0,3,0.01
2013-2-19,35.0,28.8,24.0,30.0,16.2,-99.9,100,86,79,0.00,40.00,2,-86,4,0.00
2013-2-20,30.0,27.7,24.0,29.0,27.0,23.0,100,98,94,0.00,40.00,1,0,3,0.01
2013-2-21,30.0,28.5,27.0,30.0,28.4,26.0,101,100,99,0.00,40.00,3,-42,4,0.02
2013-2-22,32.0,29.7,25.0,32.0,18.2,-99.9,102,92,100,0.00,40.00,5,-84,9,0.03
2013-2-23,29.0,27.0,25.0,29.0,10.8,-99.9,101,88,100,0.00,40.00,3,-190,4,0.02
2013-2-24,32.0,28.2,26.0,32.0,-24.5,-99.9,103,59,100,0.00,40.00,3,-411,6,0.01
2013-2-25,32.0,28.9,26.0,32.0,22.5,-99.9,102,96,100,0.00,40.00,3,-48,7,0.02
2013-2-26,33.0,27.8,24.0,33.0,18.9,-99.9,101,93,99,0.00,40.00,3,-113,5,0.01
2013-2-27,35.0,32.2,30.0,35.0,32.2,30.0,103,102,100,0.00,40.00,2,1,4,0.00
2013-2-28,38.0,35.8,32.0,38.0,35.8,32.0,103,103,100,0.00,40.00,3,-42,5,0.03